sensor_id;sensor_type;location;lat;lon;timestamp;temperature;humidity
4399;DHT22;2213;49.720;7.296;2023-06-26T00:00:30;20.00;94.50
4399;DHT22;2213;49.720;7.296;2023-06-26T00:03:00;19.90;94.70
4399;DHT22;2213;49.720;7.296;2023-06-26T00:05:29;19.90;94.50
4399;DHT22;2213;49.720;7.296;2023-06-26T00:07:57;19.80;94.70
4399;DHT22;2213;49.720;7.296;2023-06-26T00:10:27;19.80;95.00
4399;DHT22;2213;49.720;7.296;2023-06-26T00:12:56;19.70;94.90
4399;DHT22;2213;49.720;7.296;2023-06-26T00:15:25;19.70;94.80
4399;DHT22;2213;49.720;7.296;2023-06-26T00:18:00;19.70;94.80
4399;DHT22;2213;49.720;7.296;2023-06-26T00:20:30;19.60;95.00
4399;DHT22;2213;49.720;7.296;2023-06-26T00:23:01;19.60;95.10
4399;DHT22;2213;49.720;7.296;2023-06-26T00:25:31;19.50;95.10
4399;DHT22;2213;49.720;7.296;2023-06-26T00:28:00;19.40;95.20
4399;DHT22;2213;49.720;7.296;2023-06-26T00:30:29;19.40;95.30
4399;DHT22;2213;49.720;7.296;2023-06-26T00:32:59;19.30;95.30
4399;DHT22;2213;49.720;7.296;2023-06-26T00:35:27;19.30;95.40
4399;DHT22;2213;49.720;7.296;2023-06-26T00:37:56;19.30;95.50
4399;DHT22;2213;49.720;7.296;2023-06-26T00:40:24;19.20;95.50
4399;DHT22;2213;49.720;7.296;2023-06-26T00:42:55;19.20;95.50
4399;DHT22;2213;49.720;7.296;2023-06-26T00:45:23;19.20;95.80
4399;DHT22;2213;49.720;7.296;2023-06-26T00:48:10;19.10;95.60
4399;DHT22;2213;49.720;7.296;2023-06-26T00:50:41;19.10;95.60
4399;DHT22;2213;49.720;7.296;2023-06-26T00:53:11;19.10;95.60
4399;DHT22;2213;49.720;7.296;2023-06-26T00:55:40;19.00;95.60
4399;DHT22;2213;49.720;7.296;2023-06-26T00:58:09;19.00;95.80
4399;DHT22;2213;49.720;7.296;2023-06-26T01:00:39;18.90;95.70
4399;DHT22;2213;49.720;7.296;2023-06-26T01:03:14;18.90;95.90
4399;DHT22;2213;49.720;7.296;2023-06-26T01:05:43;18.90;95.90
4399;DHT22;2213;49.720;7.296;2023-06-26T01:08:19;18.90;95.90
4399;DHT22;2213;49.720;7.296;2023-06-26T01:10:49;18.80;95.80
4399;DHT22;2213;49.720;7.296;2023-06-26T01:13:19;18.80;95.90
4399;DHT22;2213;49.720;7.296;2023-06-26T01:15:48;18.80;96.10
4399;DHT22;2213;49.720;7.296;2023-06-26T01:18:21;18.70;96.10
4399;DHT22;2213;49.720;7.296;2023-06-26T01:20:52;18.70;96.10
4399;DHT22;2213;49.720;7.296;2023-06-26T01:23:31;18.60;96.20
4399;DHT22;2213;49.720;7.296;2023-06-26T01:26:19;18.60;96.20
4399;DHT22;2213;49.720;7.296;2023-06-26T01:28:50;18.50;96.10
4399;DHT22;2213;49.720;7.296;2023-06-26T01:31:20;18.50;96.20
4399;DHT22;2213;49.720;7.296;2023-06-26T01:33:49;18.50;96.40
4399;DHT22;2213;49.720;7.296;2023-06-26T01:36:19;18.40;96.40
4399;DHT22;2213;49.720;7.296;2023-06-26T01:38:47;18.40;96.60
4399;DHT22;2213;49.720;7.296;2023-06-26T01:41:19;18.40;96.50
4399;DHT22;2213;49.720;7.296;2023-06-26T01:44:01;18.40;96.50
4399;DHT22;2213;49.720;7.296;2023-06-26T01:46:43;18.40;96.70
4399;DHT22;2213;49.720;7.296;2023-06-26T01:49:28;18.30;96.40
4399;DHT22;2213;49.720;7.296;2023-06-26T01:52:08;18.30;96.40
4399;DHT22;2213;49.720;7.296;2023-06-26T01:54:51;18.30;96.50
4399;DHT22;2213;49.720;7.296;2023-06-26T01:57:26;18.30;96.80
4399;DHT22;2213;49.720;7.296;2023-06-26T01:59:58;18.30;96.60
4399;DHT22;2213;49.720;7.296;2023-06-26T02:02:29;18.20;96.70
4399;DHT22;2213;49.720;7.296;2023-06-26T02:04:58;18.20;96.70
4399;DHT22;2213;49.720;7.296;2023-06-26T02:07:27;18.10;96.80
4399;DHT22;2213;49.720;7.296;2023-06-26T02:09:56;18.10;96.80
4399;DHT22;2213;49.720;7.296;2023-06-26T02:12:27;18.10;96.70
4399;DHT22;2213;49.720;7.296;2023-06-26T02:14:55;18.00;96.90
4399;DHT22;2213;49.720;7.296;2023-06-26T02:17:25;18.00;96.90
4399;DHT22;2213;49.720;7.296;2023-06-26T02:19:55;18.00;97.00
4399;DHT22;2213;49.720;7.296;2023-06-26T02:22:24;17.90;97.10
4399;DHT22;2213;49.720;7.296;2023-06-26T02:24:56;17.90;97.10
4399;DHT22;2213;49.720;7.296;2023-06-26T02:27:26;17.90;97.20
4399;DHT22;2213;49.720;7.296;2023-06-26T02:29:55;17.80;97.30
4399;DHT22;2213;49.720;7.296;2023-06-26T02:32:25;17.80;97.20
4399;DHT22;2213;49.720;7.296;2023-06-26T02:34:54;17.80;97.40
4399;DHT22;2213;49.720;7.296;2023-06-26T02:37:23;17.70;97.40
4399;DHT22;2213;49.720;7.296;2023-06-26T02:39:52;17.70;97.30
4399;DHT22;2213;49.720;7.296;2023-06-26T02:42:21;17.70;97.40
4399;DHT22;2213;49.720;7.296;2023-06-26T02:44:52;17.70;97.60
4399;DHT22;2213;49.720;7.296;2023-06-26T02:47:21;17.70;97.50
4399;DHT22;2213;49.720;7.296;2023-06-26T02:49:50;17.60;97.30
4399;DHT22;2213;49.720;7.296;2023-06-26T02:52:19;17.60;97.40
4399;DHT22;2213;49.720;7.296;2023-06-26T02:54:49;17.60;97.60
4399;DHT22;2213;49.720;7.296;2023-06-26T02:57:18;17.60;97.50
4399;DHT22;2213;49.720;7.296;2023-06-26T02:59:46;17.50;97.70
4399;DHT22;2213;49.720;7.296;2023-06-26T03:02:17;17.60;97.50
4399;DHT22;2213;49.720;7.296;2023-06-26T03:04:47;17.50;97.60
4399;DHT22;2213;49.720;7.296;2023-06-26T03:07:16;17.40;97.70
4399;DHT22;2213;49.720;7.296;2023-06-26T03:09:45;17.40;97.80
4399;DHT22;2213;49.720;7.296;2023-06-26T03:12:14;17.40;97.80
4399;DHT22;2213;49.720;7.296;2023-06-26T03:14:42;17.40;98.00
4399;DHT22;2213;49.720;7.296;2023-06-26T03:17:13;17.30;98.00
4399;DHT22;2213;49.720;7.296;2023-06-26T03:19:43;17.30;98.10
4399;DHT22;2213;49.720;7.296;2023-06-26T03:22:12;17.30;97.90
4399;DHT22;2213;49.720;7.296;2023-06-26T03:24:41;17.30;97.70
4399;DHT22;2213;49.720;7.296;2023-06-26T03:27:12;17.30;97.80
4399;DHT22;2213;49.720;7.296;2023-06-26T03:29:44;17.30;97.80
4399;DHT22;2213;49.720;7.296;2023-06-26T03:32:14;17.20;98.00
4399;DHT22;2213;49.720;7.296;2023-06-26T03:34:45;17.20;98.00
4399;DHT22;2213;49.720;7.296;2023-06-26T03:37:14;17.20;98.40
4399;DHT22;2213;49.720;7.296;2023-06-26T03:39:42;17.10;98.20
4399;DHT22;2213;49.720;7.296;2023-06-26T03:42:12;17.10;98.50
4399;DHT22;2213;49.720;7.296;2023-06-26T03:44:41;17.10;98.30
4399;DHT22;2213;49.720;7.296;2023-06-26T03:47:11;17.10;98.30
4399;DHT22;2213;49.720;7.296;2023-06-26T03:49:40;17.10;98.60
4399;DHT22;2213;49.720;7.296;2023-06-26T03:52:10;17.20;98.30
4399;DHT22;2213;49.720;7.296;2023-06-26T03:54:42;17.20;98.30
4399;DHT22;2213;49.720;7.296;2023-06-26T03:57:12;17.20;98.50
4399;DHT22;2213;49.720;7.296;2023-06-26T03:59:41;17.20;98.40
4399;DHT22;2213;49.720;7.296;2023-06-26T04:02:10;17.10;98.30
4399;DHT22;2213;49.720;7.296;2023-06-26T04:04:40;17.10;98.40
4399;DHT22;2213;49.720;7.296;2023-06-26T04:07:10;17.10;98.30
4399;DHT22;2213;49.720;7.296;2023-06-26T04:09:39;17.10;98.60
4399;DHT22;2213;49.720;7.296;2023-06-26T04:12:08;17.10;98.60
4399;DHT22;2213;49.720;7.296;2023-06-26T04:14:37;17.10;98.40
4399;DHT22;2213;49.720;7.296;2023-06-26T04:17:06;17.00;98.50
4399;DHT22;2213;49.720;7.296;2023-06-26T04:19:35;17.10;98.50
4399;DHT22;2213;49.720;7.296;2023-06-26T04:22:04;17.10;98.50
4399;DHT22;2213;49.720;7.296;2023-06-26T04:24:35;17.10;98.40
4399;DHT22;2213;49.720;7.296;2023-06-26T04:27:05;17.10;98.50
4399;DHT22;2213;49.720;7.296;2023-06-26T04:29:35;17.10;98.60
4399;DHT22;2213;49.720;7.296;2023-06-26T04:32:04;17.10;98.60
4399;DHT22;2213;49.720;7.296;2023-06-26T04:34:34;17.10;98.60
4399;DHT22;2213;49.720;7.296;2023-06-26T04:37:08;17.10;98.50
4399;DHT22;2213;49.720;7.296;2023-06-26T04:39:39;17.10;98.70
4399;DHT22;2213;49.720;7.296;2023-06-26T04:42:08;17.10;98.30
4399;DHT22;2213;49.720;7.296;2023-06-26T04:44:38;17.20;98.10
4399;DHT22;2213;49.720;7.296;2023-06-26T04:47:08;17.20;98.00
4399;DHT22;2213;49.720;7.296;2023-06-26T04:49:37;17.20;98.00
4399;DHT22;2213;49.720;7.296;2023-06-26T04:52:05;17.20;98.10
4399;DHT22;2213;49.720;7.296;2023-06-26T04:54:34;17.30;98.10
4399;DHT22;2213;49.720;7.296;2023-06-26T04:57:05;17.30;98.00
4399;DHT22;2213;49.720;7.296;2023-06-26T04:59:36;17.30;98.30
4399;DHT22;2213;49.720;7.296;2023-06-26T05:02:05;17.30;98.20
4399;DHT22;2213;49.720;7.296;2023-06-26T05:04:34;17.40;98.10
4399;DHT22;2213;49.720;7.296;2023-06-26T05:07:03;17.40;98.10
4399;DHT22;2213;49.720;7.296;2023-06-26T05:09:32;17.40;97.90
4399;DHT22;2213;49.720;7.296;2023-06-26T05:12:01;17.50;97.90
4399;DHT22;2213;49.720;7.296;2023-06-26T05:14:32;17.60;97.80
4399;DHT22;2213;49.720;7.296;2023-06-26T05:17:01;17.50;97.70
4399;DHT22;2213;49.720;7.296;2023-06-26T05:19:29;17.60;97.80
4399;DHT22;2213;49.720;7.296;2023-06-26T05:21:59;17.60;97.90
4399;DHT22;2213;49.720;7.296;2023-06-26T05:24:31;17.70;98.00
4399;DHT22;2213;49.720;7.296;2023-06-26T05:27:02;17.70;97.80
4399;DHT22;2213;49.720;7.296;2023-06-26T05:29:34;17.80;97.80
4399;DHT22;2213;49.720;7.296;2023-06-26T05:32:05;17.80;97.80
4399;DHT22;2213;49.720;7.296;2023-06-26T05:34:35;17.80;97.70
4399;DHT22;2213;49.720;7.296;2023-06-26T05:37:07;17.90;97.80
4399;DHT22;2213;49.720;7.296;2023-06-26T05:39:37;17.90;97.70
4399;DHT22;2213;49.720;7.296;2023-06-26T05:42:09;18.00;97.90
4399;DHT22;2213;49.720;7.296;2023-06-26T05:44:39;18.10;98.20
4399;DHT22;2213;49.720;7.296;2023-06-26T05:47:08;18.10;97.90
4399;DHT22;2213;49.720;7.296;2023-06-26T05:49:36;18.20;97.80
4399;DHT22;2213;49.720;7.296;2023-06-26T05:52:07;18.20;98.00
4399;DHT22;2213;49.720;7.296;2023-06-26T05:54:37;18.30;98.00
4399;DHT22;2213;49.720;7.296;2023-06-26T05:57:10;18.30;98.00
4399;DHT22;2213;49.720;7.296;2023-06-26T05:59:43;18.40;97.80
4399;DHT22;2213;49.720;7.296;2023-06-26T06:02:15;18.50;98.00
4399;DHT22;2213;49.720;7.296;2023-06-26T06:04:44;18.50;97.90
4399;DHT22;2213;49.720;7.296;2023-06-26T06:07:12;18.60;98.20
4399;DHT22;2213;49.720;7.296;2023-06-26T06:09:42;18.70;97.90
4399;DHT22;2213;49.720;7.296;2023-06-26T06:12:12;18.70;97.80
4399;DHT22;2213;49.720;7.296;2023-06-26T06:14:40;18.80;97.90
4399;DHT22;2213;49.720;7.296;2023-06-26T06:17:09;18.80;97.70
4399;DHT22;2213;49.720;7.296;2023-06-26T06:19:38;18.90;97.70
4399;DHT22;2213;49.720;7.296;2023-06-26T06:22:06;19.00;97.80
4399;DHT22;2213;49.720;7.296;2023-06-26T06:24:35;19.00;97.80
4399;DHT22;2213;49.720;7.296;2023-06-26T06:27:04;19.10;98.00
4399;DHT22;2213;49.720;7.296;2023-06-26T06:29:34;19.20;97.90
4399;DHT22;2213;49.720;7.296;2023-06-26T06:32:03;19.30;98.10
4399;DHT22;2213;49.720;7.296;2023-06-26T06:34:32;19.30;98.00
4399;DHT22;2213;49.720;7.296;2023-06-26T06:37:02;19.40;98.40
4399;DHT22;2213;49.720;7.296;2023-06-26T06:39:32;19.50;98.20
4399;DHT22;2213;49.720;7.296;2023-06-26T06:42:02;19.50;98.10
4399;DHT22;2213;49.720;7.296;2023-06-26T06:44:31;19.60;98.10
4399;DHT22;2213;49.720;7.296;2023-06-26T06:47:02;19.70;98.10
4399;DHT22;2213;49.720;7.296;2023-06-26T06:49:31;19.70;98.30
4399;DHT22;2213;49.720;7.296;2023-06-26T06:52:00;19.80;98.30
4399;DHT22;2213;49.720;7.296;2023-06-26T06:54:29;19.90;98.30
4399;DHT22;2213;49.720;7.296;2023-06-26T06:56:58;20.00;98.30
4399;DHT22;2213;49.720;7.296;2023-06-26T06:59:27;20.00;98.00
4399;DHT22;2213;49.720;7.296;2023-06-26T07:01:56;20.10;98.10
4399;DHT22;2213;49.720;7.296;2023-06-26T07:04:26;20.20;98.20
4399;DHT22;2213;49.720;7.296;2023-06-26T07:06:55;20.30;98.10
4399;DHT22;2213;49.720;7.296;2023-06-26T07:09:25;20.30;98.20
4399;DHT22;2213;49.720;7.296;2023-06-26T07:11:53;20.40;98.50
4399;DHT22;2213;49.720;7.296;2023-06-26T07:14:22;20.60;98.70
4399;DHT22;2213;49.720;7.296;2023-06-26T07:16:52;20.80;98.40
4399;DHT22;2213;49.720;7.296;2023-06-26T07:19:20;20.90;98.10
4399;DHT22;2213;49.720;7.296;2023-06-26T07:21:51;21.10;97.90
4399;DHT22;2213;49.720;7.296;2023-06-26T07:24:19;21.40;97.10
4399;DHT22;2213;49.720;7.296;2023-06-26T07:26:48;21.50;96.60
4399;DHT22;2213;49.720;7.296;2023-06-26T07:29:18;21.60;96.40
4399;DHT22;2213;49.720;7.296;2023-06-26T07:31:46;21.80;95.90
4399;DHT22;2213;49.720;7.296;2023-06-26T07:34:15;21.70;95.90
4399;DHT22;2213;49.720;7.296;2023-06-26T07:36:44;21.80;95.50
4399;DHT22;2213;49.720;7.296;2023-06-26T07:39:14;21.70;95.40
4399;DHT22;2213;49.720;7.296;2023-06-26T07:41:49;21.80;95.60
4399;DHT22;2213;49.720;7.296;2023-06-26T07:44:18;21.80;95.60
4399;DHT22;2213;49.720;7.296;2023-06-26T07:46:48;21.90;95.10
4399;DHT22;2213;49.720;7.296;2023-06-26T07:49:16;22.00;95.00
4399;DHT22;2213;49.720;7.296;2023-06-26T07:51:45;22.20;94.50
4399;DHT22;2213;49.720;7.296;2023-06-26T07:54:17;22.20;94.50
4399;DHT22;2213;49.720;7.296;2023-06-26T07:56:56;22.30;94.10
4399;DHT22;2213;49.720;7.296;2023-06-26T07:59:27;22.40;93.80
4399;DHT22;2213;49.720;7.296;2023-06-26T08:01:57;22.40;93.70
4399;DHT22;2213;49.720;7.296;2023-06-26T08:04:27;22.40;93.70
4399;DHT22;2213;49.720;7.296;2023-06-26T08:07:00;22.50;93.40
4399;DHT22;2213;49.720;7.296;2023-06-26T08:09:32;22.50;93.20
4399;DHT22;2213;49.720;7.296;2023-06-26T08:12:01;22.60;93.10
4399;DHT22;2213;49.720;7.296;2023-06-26T08:14:32;22.70;92.80
4399;DHT22;2213;49.720;7.296;2023-06-26T08:17:01;22.70;92.70
4399;DHT22;2213;49.720;7.296;2023-06-26T08:19:29;22.70;93.00
4399;DHT22;2213;49.720;7.296;2023-06-26T08:21:58;22.70;92.80
4399;DHT22;2213;49.720;7.296;2023-06-26T08:24:26;22.80;92.80
4399;DHT22;2213;49.720;7.296;2023-06-26T08:26:57;22.90;92.70
4399;DHT22;2213;49.720;7.296;2023-06-26T08:29:25;22.80;92.50
4399;DHT22;2213;49.720;7.296;2023-06-26T08:31:54;22.80;92.80
4399;DHT22;2213;49.720;7.296;2023-06-26T08:34:22;22.80;92.80
4399;DHT22;2213;49.720;7.296;2023-06-26T08:36:52;22.80;92.90
4399;DHT22;2213;49.720;7.296;2023-06-26T08:39:21;22.80;92.90
4399;DHT22;2213;49.720;7.296;2023-06-26T08:41:50;22.90;93.00
4399;DHT22;2213;49.720;7.296;2023-06-26T08:44:20;22.90;93.00
4399;DHT22;2213;49.720;7.296;2023-06-26T08:46:51;22.90;93.30
4399;DHT22;2213;49.720;7.296;2023-06-26T08:49:23;23.00;93.20
4399;DHT22;2213;49.720;7.296;2023-06-26T08:52:00;23.00;93.30
4399;DHT22;2213;49.720;7.296;2023-06-26T08:54:36;23.10;93.50
4399;DHT22;2213;49.720;7.296;2023-06-26T08:57:08;23.20;93.20
4399;DHT22;2213;49.720;7.296;2023-06-26T08:59:39;23.40;92.50
4399;DHT22;2213;49.720;7.296;2023-06-26T09:02:08;23.40;93.00
4399;DHT22;2213;49.720;7.296;2023-06-26T09:04:39;23.40;92.80
4399;DHT22;2213;49.720;7.296;2023-06-26T09:07:08;23.50;91.70
4399;DHT22;2213;49.720;7.296;2023-06-26T09:09:37;23.60;91.50
4399;DHT22;2213;49.720;7.296;2023-06-26T09:12:07;23.60;91.20
4399;DHT22;2213;49.720;7.296;2023-06-26T09:14:38;23.70;91.10
4399;DHT22;2213;49.720;7.296;2023-06-26T09:17:07;23.80;90.90
4399;DHT22;2213;49.720;7.296;2023-06-26T09:19:37;23.90;91.10
4399;DHT22;2213;49.720;7.296;2023-06-26T09:22:11;23.90;90.80
4399;DHT22;2213;49.720;7.296;2023-06-26T09:24:43;24.00;90.50
4399;DHT22;2213;49.720;7.296;2023-06-26T09:27:12;24.10;90.20
4399;DHT22;2213;49.720;7.296;2023-06-26T09:29:45;24.10;89.00
4399;DHT22;2213;49.720;7.296;2023-06-26T09:32:14;24.00;88.80
4399;DHT22;2213;49.720;7.296;2023-06-26T09:34:43;24.10;89.00
4399;DHT22;2213;49.720;7.296;2023-06-26T09:37:13;24.10;88.60
4399;DHT22;2213;49.720;7.296;2023-06-26T09:39:42;24.10;88.10
4399;DHT22;2213;49.720;7.296;2023-06-26T09:42:14;24.10;88.30
4399;DHT22;2213;49.720;7.296;2023-06-26T09:44:45;24.20;88.40
4399;DHT22;2213;49.720;7.296;2023-06-26T09:47:16;24.20;87.40
4399;DHT22;2213;49.720;7.296;2023-06-26T09:49:48;24.20;88.00
4399;DHT22;2213;49.720;7.296;2023-06-26T09:52:18;24.20;88.30
4399;DHT22;2213;49.720;7.296;2023-06-26T09:54:47;24.30;88.20
4399;DHT22;2213;49.720;7.296;2023-06-26T09:57:17;24.30;88.10
4399;DHT22;2213;49.720;7.296;2023-06-26T09:59:49;24.30;87.90
4399;DHT22;2213;49.720;7.296;2023-06-26T10:02:18;24.30;87.70
4399;DHT22;2213;49.720;7.296;2023-06-26T10:04:47;24.20;86.80
4399;DHT22;2213;49.720;7.296;2023-06-26T10:07:16;24.20;87.00
4399;DHT22;2213;49.720;7.296;2023-06-26T10:09:47;24.30;87.30
4399;DHT22;2213;49.720;7.296;2023-06-26T10:12:20;24.30;86.40
4399;DHT22;2213;49.720;7.296;2023-06-26T10:14:57;24.30;86.10
4399;DHT22;2213;49.720;7.296;2023-06-26T10:17:28;24.30;86.10
4399;DHT22;2213;49.720;7.296;2023-06-26T10:20:04;24.30;86.30
4399;DHT22;2213;49.720;7.296;2023-06-26T10:22:41;24.30;86.80
4399;DHT22;2213;49.720;7.296;2023-06-26T10:25:17;24.40;86.50
4399;DHT22;2213;49.720;7.296;2023-06-26T10:27:52;24.50;85.80
4399;DHT22;2213;49.720;7.296;2023-06-26T10:30:27;24.50;86.40
4399;DHT22;2213;49.720;7.296;2023-06-26T10:32:59;24.40;87.00
4399;DHT22;2213;49.720;7.296;2023-06-26T10:35:31;24.40;86.30
4399;DHT22;2213;49.720;7.296;2023-06-26T10:38:01;24.50;86.30
4399;DHT22;2213;49.720;7.296;2023-06-26T10:40:40;24.60;86.20
4399;DHT22;2213;49.720;7.296;2023-06-26T10:43:12;24.60;87.10
4399;DHT22;2213;49.720;7.296;2023-06-26T10:45:46;24.60;87.10
4399;DHT22;2213;49.720;7.296;2023-06-26T10:48:20;24.70;87.20
4399;DHT22;2213;49.720;7.296;2023-06-26T10:50:53;24.80;87.10
4399;DHT22;2213;49.720;7.296;2023-06-26T10:53:23;24.70;88.20
4399;DHT22;2213;49.720;7.296;2023-06-26T10:55:56;24.80;88.20
4399;DHT22;2213;49.720;7.296;2023-06-26T10:58:34;24.80;88.50
4399;DHT22;2213;49.720;7.296;2023-06-26T11:01:24;24.90;86.80
4399;DHT22;2213;49.720;7.296;2023-06-26T11:04:05;24.90;86.60
4399;DHT22;2213;49.720;7.296;2023-06-26T11:06:35;25.00;86.80
4399;DHT22;2213;49.720;7.296;2023-06-26T11:09:10;25.00;87.00
4399;DHT22;2213;49.720;7.296;2023-06-26T11:11:58;25.00;86.80
4399;DHT22;2213;49.720;7.296;2023-06-26T11:14:31;24.90;87.20
4399;DHT22;2213;49.720;7.296;2023-06-26T11:17:06;25.00;85.10
4399;DHT22;2213;49.720;7.296;2023-06-26T11:19:34;25.10;82.10
4399;DHT22;2213;49.720;7.296;2023-06-26T11:22:05;25.20;82.00
4399;DHT22;2213;49.720;7.296;2023-06-26T11:24:34;25.20;83.30
4399;DHT22;2213;49.720;7.296;2023-06-26T11:27:04;25.20;85.30
4399;DHT22;2213;49.720;7.296;2023-06-26T11:29:34;25.20;85.90
4399;DHT22;2213;49.720;7.296;2023-06-26T11:32:06;25.20;84.80
4399;DHT22;2213;49.720;7.296;2023-06-26T11:34:36;25.20;82.50
4399;DHT22;2213;49.720;7.296;2023-06-26T11:37:05;25.30;81.60
4399;DHT22;2213;49.720;7.296;2023-06-26T11:39:35;25.40;82.40
4399;DHT22;2213;49.720;7.296;2023-06-26T11:42:05;25.30;81.30
4399;DHT22;2213;49.720;7.296;2023-06-26T11:44:40;25.30;78.40
4399;DHT22;2213;49.720;7.296;2023-06-26T11:47:14;25.30;71.10
4399;DHT22;2213;49.720;7.296;2023-06-26T11:49:45;25.20;73.40
4399;DHT22;2213;49.720;7.296;2023-06-26T11:52:16;25.30;75.60
4399;DHT22;2213;49.720;7.296;2023-06-26T11:54:44;25.20;76.30
4399;DHT22;2213;49.720;7.296;2023-06-26T11:57:15;25.40;75.70
4399;DHT22;2213;49.720;7.296;2023-06-26T11:59:44;25.50;74.70
4399;DHT22;2213;49.720;7.296;2023-06-26T12:02:14;25.50;75.20
4399;DHT22;2213;49.720;7.296;2023-06-26T12:04:44;25.60;74.30
4399;DHT22;2213;49.720;7.296;2023-06-26T12:07:15;25.60;73.20
4399;DHT22;2213;49.720;7.296;2023-06-26T12:09:46;25.60;73.50
4399;DHT22;2213;49.720;7.296;2023-06-26T12:12:18;25.50;74.60
4399;DHT22;2213;49.720;7.296;2023-06-26T12:14:47;25.60;75.30
4399;DHT22;2213;49.720;7.296;2023-06-26T12:17:18;25.40;76.20
4399;DHT22;2213;49.720;7.296;2023-06-26T12:19:52;25.60;73.70
4399;DHT22;2213;49.720;7.296;2023-06-26T12:22:20;25.50;73.40
4399;DHT22;2213;49.720;7.296;2023-06-26T12:24:50;25.70;72.50
4399;DHT22;2213;49.720;7.296;2023-06-26T12:27:19;25.70;73.00
4399;DHT22;2213;49.720;7.296;2023-06-26T12:29:50;25.70;73.90
4399;DHT22;2213;49.720;7.296;2023-06-26T12:32:24;25.70;74.30
4399;DHT22;2213;49.720;7.296;2023-06-26T12:34:56;25.70;74.20
4399;DHT22;2213;49.720;7.296;2023-06-26T12:37:26;25.80;72.20
4399;DHT22;2213;49.720;7.296;2023-06-26T12:39:56;25.70;72.60
4399;DHT22;2213;49.720;7.296;2023-06-26T12:42:27;25.80;71.30
4399;DHT22;2213;49.720;7.296;2023-06-26T12:44:57;25.80;67.90
4399;DHT22;2213;49.720;7.296;2023-06-26T12:47:28;25.80;67.30
4399;DHT22;2213;49.720;7.296;2023-06-26T12:49:58;25.90;67.20
4399;DHT22;2213;49.720;7.296;2023-06-26T12:52:26;26.00;68.80
4399;DHT22;2213;49.720;7.296;2023-06-26T12:54:55;25.90;69.10
4399;DHT22;2213;49.720;7.296;2023-06-26T12:57:25;25.90;69.40
4399;DHT22;2213;49.720;7.296;2023-06-26T12:59:54;26.00;69.40
4399;DHT22;2213;49.720;7.296;2023-06-26T13:02:22;26.00;69.90
4399;DHT22;2213;49.720;7.296;2023-06-26T13:04:53;26.10;70.90
4399;DHT22;2213;49.720;7.296;2023-06-26T13:07:23;26.10;71.10
4399;DHT22;2213;49.720;7.296;2023-06-26T13:09:53;26.10;71.40
4399;DHT22;2213;49.720;7.296;2023-06-26T13:12:22;26.10;68.20
4399;DHT22;2213;49.720;7.296;2023-06-26T13:14:51;26.00;69.30
4399;DHT22;2213;49.720;7.296;2023-06-26T13:17:19;25.90;70.00
4399;DHT22;2213;49.720;7.296;2023-06-26T13:19:48;26.00;69.80
4399;DHT22;2213;49.720;7.296;2023-06-26T13:22:18;26.20;69.60
4399;DHT22;2213;49.720;7.296;2023-06-26T13:24:48;26.10;69.40
4399;DHT22;2213;49.720;7.296;2023-06-26T13:27:17;26.10;70.90
4399;DHT22;2213;49.720;7.296;2023-06-26T13:29:47;26.20;72.20
4399;DHT22;2213;49.720;7.296;2023-06-26T13:32:15;26.20;70.90
4399;DHT22;2213;49.720;7.296;2023-06-26T13:34:44;26.40;70.10
4399;DHT22;2213;49.720;7.296;2023-06-26T13:37:12;26.30;70.40
4399;DHT22;2213;49.720;7.296;2023-06-26T13:39:43;26.40;70.60
4399;DHT22;2213;49.720;7.296;2023-06-26T13:42:18;26.40;70.00
4399;DHT22;2213;49.720;7.296;2023-06-26T13:44:47;26.40;69.50
4399;DHT22;2213;49.720;7.296;2023-06-26T13:47:31;26.30;69.40
4399;DHT22;2213;49.720;7.296;2023-06-26T13:50:01;26.40;69.40
4399;DHT22;2213;49.720;7.296;2023-06-26T13:52:30;26.30;69.90
4399;DHT22;2213;49.720;7.296;2023-06-26T13:55:00;26.30;70.20
4399;DHT22;2213;49.720;7.296;2023-06-26T13:57:31;26.30;68.70
4399;DHT22;2213;49.720;7.296;2023-06-26T14:00:01;26.30;67.90
4399;DHT22;2213;49.720;7.296;2023-06-26T14:02:31;26.40;68.90
4399;DHT22;2213;49.720;7.296;2023-06-26T14:05:00;26.40;69.70
4399;DHT22;2213;49.720;7.296;2023-06-26T14:07:30;26.40;70.00
4399;DHT22;2213;49.720;7.296;2023-06-26T14:10:01;26.50;67.60
4399;DHT22;2213;49.720;7.296;2023-06-26T14:12:30;26.50;67.30
4399;DHT22;2213;49.720;7.296;2023-06-26T14:14:59;26.50;67.60
4399;DHT22;2213;49.720;7.296;2023-06-26T14:17:28;26.50;66.70
4399;DHT22;2213;49.720;7.296;2023-06-26T14:19:57;26.50;67.50
4399;DHT22;2213;49.720;7.296;2023-06-26T14:22:26;26.60;67.30
4399;DHT22;2213;49.720;7.296;2023-06-26T14:24:55;26.60;67.30
4399;DHT22;2213;49.720;7.296;2023-06-26T14:27:26;26.70;66.10
4399;DHT22;2213;49.720;7.296;2023-06-26T14:29:54;26.60;66.60
4399;DHT22;2213;49.720;7.296;2023-06-26T14:32:23;26.60;66.90
4399;DHT22;2213;49.720;7.296;2023-06-26T14:34:52;26.70;67.20
4399;DHT22;2213;49.720;7.296;2023-06-26T14:37:21;26.70;66.80
4399;DHT22;2213;49.720;7.296;2023-06-26T14:39:50;26.80;67.00
4399;DHT22;2213;49.720;7.296;2023-06-26T14:42:19;26.80;66.80
4399;DHT22;2213;49.720;7.296;2023-06-26T14:44:49;26.90;67.10
4399;DHT22;2213;49.720;7.296;2023-06-26T14:47:19;26.80;66.40
4399;DHT22;2213;49.720;7.296;2023-06-26T14:49:48;26.90;66.90
4399;DHT22;2213;49.720;7.296;2023-06-26T14:52:17;26.80;66.00
4399;DHT22;2213;49.720;7.296;2023-06-26T14:54:46;26.80;67.30
4399;DHT22;2213;49.720;7.296;2023-06-26T14:57:15;26.90;67.50
4399;DHT22;2213;49.720;7.296;2023-06-26T14:59:45;26.80;66.80
4399;DHT22;2213;49.720;7.296;2023-06-26T15:02:15;26.90;67.20
4399;DHT22;2213;49.720;7.296;2023-06-26T15:04:44;26.90;66.50
4399;DHT22;2213;49.720;7.296;2023-06-26T15:07:14;27.00;66.30
4399;DHT22;2213;49.720;7.296;2023-06-26T15:09:43;27.10;67.50
4399;DHT22;2213;49.720;7.296;2023-06-26T15:12:12;27.20;67.20
4399;DHT22;2213;49.720;7.296;2023-06-26T15:14:41;27.30;67.70
4399;DHT22;2213;49.720;7.296;2023-06-26T15:17:09;27.20;67.70
4399;DHT22;2213;49.720;7.296;2023-06-26T15:19:41;27.30;67.80
4399;DHT22;2213;49.720;7.296;2023-06-26T15:22:10;27.40;67.50
4399;DHT22;2213;49.720;7.296;2023-06-26T15:24:39;27.40;67.30
4399;DHT22;2213;49.720;7.296;2023-06-26T15:27:07;27.50;67.10
4399;DHT22;2213;49.720;7.296;2023-06-26T15:29:36;27.40;66.00
4399;DHT22;2213;49.720;7.296;2023-06-26T15:32:07;27.30;66.50
4399;DHT22;2213;49.720;7.296;2023-06-26T15:34:38;27.20;67.00
4399;DHT22;2213;49.720;7.296;2023-06-26T15:37:08;27.20;67.60
4399;DHT22;2213;49.720;7.296;2023-06-26T15:39:37;27.10;67.70
4399;DHT22;2213;49.720;7.296;2023-06-26T15:42:06;27.10;68.20
4399;DHT22;2213;49.720;7.296;2023-06-26T15:44:36;27.10;68.70
4399;DHT22;2213;49.720;7.296;2023-06-26T15:47:06;27.00;68.50
4399;DHT22;2213;49.720;7.296;2023-06-26T15:49:34;27.00;69.20
4399;DHT22;2213;49.720;7.296;2023-06-26T15:52:03;27.10;68.90
4399;DHT22;2213;49.720;7.296;2023-06-26T15:54:35;27.10;69.10
4399;DHT22;2213;49.720;7.296;2023-06-26T15:57:06;27.00;69.00
4399;DHT22;2213;49.720;7.296;2023-06-26T15:59:34;27.00;69.40
4399;DHT22;2213;49.720;7.296;2023-06-26T16:02:03;26.90;69.60
4399;DHT22;2213;49.720;7.296;2023-06-26T16:04:32;26.80;69.80
4399;DHT22;2213;49.720;7.296;2023-06-26T16:07:02;26.90;69.20
4399;DHT22;2213;49.720;7.296;2023-06-26T16:09:31;26.70;68.90
4399;DHT22;2213;49.720;7.296;2023-06-26T16:12:01;26.50;69.40
4399;DHT22;2213;49.720;7.296;2023-06-26T16:14:31;26.60;69.90
4399;DHT22;2213;49.720;7.296;2023-06-26T16:17:03;26.60;69.80
4399;DHT22;2213;49.720;7.296;2023-06-26T16:19:32;26.50;70.30
4399;DHT22;2213;49.720;7.296;2023-06-26T16:22:06;26.40;71.10